sensor_id;sensor_type;location;lat;lon;timestamp;pressure;altitude;pressure_sealevel;temperature;humidity
42411;BME280;28056;51.112;0.984;2023-05-19T00:00:01;101847.55;;;11.60;49.65
42411;BME280;28056;51.112;0.984;2023-05-19T00:04:54;101843.75;;;11.37;50.03
42411;BME280;28056;51.112;0.984;2023-05-19T00:07:23;101845.46;;;11.57;48.49
42411;BME280;28056;51.112;0.984;2023-05-19T00:09:54;101846.30;;;11.30;50.10
42411;BME280;28056;51.112;0.984;2023-05-19T00:12:22;101844.60;;;11.34;50.53
42411;BME280;28056;51.112;0.984;2023-05-19T00:14:50;101844.39;;;11.10;51.19
42411;BME280;28056;51.112;0.984;2023-05-19T00:17:18;101844.79;;;10.78;51.19
42411;BME280;28056;51.112;0.984;2023-05-19T00:19:45;101841.82;;;10.62;50.53
42411;BME280;28056;51.112;0.984;2023-05-19T00:22:13;101838.93;;;11.17;48.96
42411;BME280;28056;51.112;0.984;2023-05-19T00:24:40;101834.41;;;11.20;49.42
42411;BME280;28056;51.112;0.984;2023-05-19T00:27:07;101831.36;;;11.49;49.44
42411;BME280;28056;51.112;0.984;2023-05-19T00:29:34;101829.14;;;11.65;48.07
42411;BME280;28056;51.112;0.984;2023-05-19T00:32:01;101827.60;;;11.52;49.56
42411;BME280;28056;51.112;0.984;2023-05-19T00:34:29;101824.78;;;11.31;48.86
42411;BME280;28056;51.112;0.984;2023-05-19T00:36:56;101823.85;;;11.12;50.18
42411;BME280;28056;51.112;0.984;2023-05-19T00:39:23;101826.56;;;11.24;49.80
42411;BME280;28056;51.112;0.984;2023-05-19T00:41:50;101823.21;;;10.82;50.33
42411;BME280;28056;51.112;0.984;2023-05-19T00:44:18;101818.16;;;10.90;50.29
42411;BME280;28056;51.112;0.984;2023-05-19T00:46:45;101812.52;;;10.57;51.50
42411;BME280;28056;51.112;0.984;2023-05-19T00:49:13;101811.01;;;10.95;50.15
42411;BME280;28056;51.112;0.984;2023-05-19T00:51:40;101815.12;;;11.12;50.15
42411;BME280;28056;51.112;0.984;2023-05-19T00:54:08;101816.12;;;11.10;50.29
42411;BME280;28056;51.112;0.984;2023-05-19T00:56:35;101813.51;;;10.81;51.05
42411;BME280;28056;51.112;0.984;2023-05-19T00:59:02;101810.51;;;10.49;50.31
42411;BME280;28056;51.112;0.984;2023-05-19T01:01:30;101811.16;;;10.39;50.70
42411;BME280;28056;51.112;0.984;2023-05-19T01:03:57;101812.10;;;9.78;53.33
42411;BME280;28056;51.112;0.984;2023-05-19T01:06:25;101812.86;;;10.10;52.20
42411;BME280;28056;51.112;0.984;2023-05-19T01:08:53;101809.45;;;9.57;54.41
42411;BME280;28056;51.112;0.984;2023-05-19T01:11:21;101810.42;;;9.77;54.22
42411;BME280;28056;51.112;0.984;2023-05-19T01:13:49;101810.40;;;9.84;53.79
42411;BME280;28056;51.112;0.984;2023-05-19T01:16:23;101810.51;;;10.16;52.93
42411;BME280;28056;51.112;0.984;2023-05-19T01:19:04;101810.03;;;9.87;53.93
42411;BME280;28056;51.112;0.984;2023-05-19T01:22:19;101812.10;;;9.73;54.79
42411;BME280;28056;51.112;0.984;2023-05-19T01:26:34;101808.84;;;10.39;51.07
42411;BME280;28056;51.112;0.984;2023-05-19T01:29:15;101804.27;;;10.17;52.91
42411;BME280;28056;51.112;0.984;2023-05-19T01:31:47;101801.66;;;10.52;52.53
42411;BME280;28056;51.112;0.984;2023-05-19T01:34:15;101802.25;;;10.50;51.86
42411;BME280;28056;51.112;0.984;2023-05-19T01:36:44;101801.85;;;10.61;52.22
42411;BME280;28056;51.112;0.984;2023-05-19T01:39:14;101798.87;;;10.88;50.32
42411;BME280;28056;51.112;0.984;2023-05-19T01:41:43;101795.53;;;10.65;51.25
42411;BME280;28056;51.112;0.984;2023-05-19T01:44:12;101790.24;;;10.58;51.23
42411;BME280;28056;51.112;0.984;2023-05-19T01:46:41;101790.26;;;10.58;51.45
42411;BME280;28056;51.112;0.984;2023-05-19T01:49:08;101790.99;;;10.53;50.44
42411;BME280;28056;51.112;0.984;2023-05-19T01:51:36;101793.09;;;10.75;50.52
42411;BME280;28056;51.112;0.984;2023-05-19T01:54:03;101794.48;;;10.41;51.26
42411;BME280;28056;51.112;0.984;2023-05-19T01:56:40;101796.79;;;10.78;50.49
42411;BME280;28056;51.112;0.984;2023-05-19T01:59:20;101795.17;;;10.50;50.94
42411;BME280;28056;51.112;0.984;2023-05-19T02:01:52;101798.92;;;10.52;52.00
42411;BME280;28056;51.112;0.984;2023-05-19T02:04:33;101795.90;;;10.43;51.78
42411;BME280;28056;51.112;0.984;2023-05-19T02:07:11;101799.52;;;10.38;51.82
42411;BME280;28056;51.112;0.984;2023-05-19T02:09:54;101796.49;;;10.39;51.85
42411;BME280;28056;51.112;0.984;2023-05-19T02:12:29;101796.04;;;10.32;51.84
42411;BME280;28056;51.112;0.984;2023-05-19T02:15:04;101795.92;;;10.43;51.07
42411;BME280;28056;51.112;0.984;2023-05-19T02:17:35;101800.19;;;10.53;51.74
42411;BME280;28056;51.112;0.984;2023-05-19T02:20:03;101801.24;;;10.51;50.98
42411;BME280;28056;51.112;0.984;2023-05-19T02:22:31;101801.69;;;10.45;52.27
42411;BME280;28056;51.112;0.984;2023-05-19T02:24:59;101800.88;;;10.50;51.85
42411;BME280;28056;51.112;0.984;2023-05-19T02:27:25;101796.09;;;10.46;52.48
42411;BME280;28056;51.112;0.984;2023-05-19T02:29:53;101792.65;;;10.39;52.01
42411;BME280;28056;51.112;0.984;2023-05-19T02:32:20;101789.69;;;10.60;52.11
42411;BME280;28056;51.112;0.984;2023-05-19T02:34:47;101791.03;;;10.61;52.35
42411;BME280;28056;51.112;0.984;2023-05-19T02:37:15;101791.20;;;10.52;53.17
42411;BME280;28056;51.112;0.984;2023-05-19T02:39:43;101792.25;;;10.69;52.20
42411;BME280;28056;51.112;0.984;2023-05-19T02:42:10;101795.03;;;10.82;51.87
42411;BME280;28056;51.112;0.984;2023-05-19T02:44:38;101797.05;;;10.21;52.95
42411;BME280;28056;51.112;0.984;2023-05-19T02:47:05;101793.32;;;9.99;52.89
42411;BME280;28056;51.112;0.984;2023-05-19T02:49:33;101789.05;;;10.26;52.77
42411;BME280;28056;51.112;0.984;2023-05-19T02:52:00;101788.73;;;10.33;52.34
42411;BME280;28056;51.112;0.984;2023-05-19T02:54:28;101791.60;;;10.23;53.31
42411;BME280;28056;51.112;0.984;2023-05-19T02:56:57;101794.56;;;10.17;53.42
42411;BME280;28056;51.112;0.984;2023-05-19T02:59:24;101798.38;;;10.64;51.92
42411;BME280;28056;51.112;0.984;2023-05-19T03:01:54;101800.30;;;10.48;51.92
42411;BME280;28056;51.112;0.984;2023-05-19T03:04:22;101798.54;;;10.85;51.30
42411;BME280;28056;51.112;0.984;2023-05-19T03:06:49;101795.80;;;10.56;52.00
42411;BME280;28056;51.112;0.984;2023-05-19T03:09:17;101795.53;;;10.70;51.25
42411;BME280;28056;51.112;0.984;2023-05-19T03:11:44;101794.62;;;9.79;51.44
42411;BME280;28056;51.112;0.984;2023-05-19T03:14:12;101796.54;;;9.82;50.99
42411;BME280;28056;51.112;0.984;2023-05-19T03:16:40;101798.02;;;9.98;50.16
42411;BME280;28056;51.112;0.984;2023-05-19T03:19:08;101800.09;;;10.11;50.71
42411;BME280;28056;51.112;0.984;2023-05-19T03:21:35;101800.21;;;10.13;50.74
42411;BME280;28056;51.112;0.984;2023-05-19T03:24:03;101795.90;;;9.91;50.76
42411;BME280;28056;51.112;0.984;2023-05-19T03:26:31;101787.79;;;10.25;50.68
42411;BME280;28056;51.112;0.984;2023-05-19T03:28:58;101788.00;;;10.18;51.55
42411;BME280;28056;51.112;0.984;2023-05-19T03:31:25;101784.99;;;10.14;50.44
42411;BME280;28056;51.112;0.984;2023-05-19T03:33:52;101782.75;;;10.15;50.50
42411;BME280;28056;51.112;0.984;2023-05-19T03:36:19;101778.75;;;10.10;51.38
42411;BME280;28056;51.112;0.984;2023-05-19T03:38:47;101776.39;;;10.24;50.87
42411;BME280;28056;51.112;0.984;2023-05-19T03:41:14;101774.13;;;10.30;50.88
42411;BME280;28056;51.112;0.984;2023-05-19T03:43:41;101770.40;;;10.52;51.13
42411;BME280;28056;51.112;0.984;2023-05-19T03:46:08;101766.99;;;10.02;51.77
42411;BME280;28056;51.112;0.984;2023-05-19T03:48:35;101764.18;;;10.47;50.53
42411;BME280;28056;51.112;0.984;2023-05-19T03:51:02;101763.66;;;10.36;50.22
42411;BME280;28056;51.112;0.984;2023-05-19T03:53:29;101760.89;;;10.33;50.65
42411;BME280;28056;51.112;0.984;2023-05-19T03:55:56;101763.34;;;10.42;50.41
42411;BME280;28056;51.112;0.984;2023-05-19T03:58:24;101764.55;;;10.57;51.30
42411;BME280;28056;51.112;0.984;2023-05-19T04:00:52;101767.72;;;10.25;51.81
42411;BME280;28056;51.112;0.984;2023-05-19T04:03:19;101771.64;;;10.05;52.95
42411;BME280;28056;51.112;0.984;2023-05-19T04:05:47;101772.22;;;9.85;51.77
42411;BME280;28056;51.112;0.984;2023-05-19T04:08:15;101769.60;;;9.76;50.98
42411;BME280;28056;51.112;0.984;2023-05-19T04:10:42;101769.75;;;9.86;50.72
42411;BME280;28056;51.112;0.984;2023-05-19T04:13:10;101770.89;;;10.13;51.08
42411;BME280;28056;51.112;0.984;2023-05-19T04:15:37;101771.87;;;10.02;52.52
42411;BME280;28056;51.112;0.984;2023-05-19T04:18:04;101771.54;;;9.80;52.30
42411;BME280;28056;51.112;0.984;2023-05-19T04:20:32;101766.67;;;9.94;52.36
42411;BME280;28056;51.112;0.984;2023-05-19T04:23:00;101765.40;;;9.96;52.10
42411;BME280;28056;51.112;0.984;2023-05-19T04:25:27;101764.72;;;10.13;51.95
42411;BME280;28056;51.112;0.984;2023-05-19T04:27:55;101766.20;;;10.28;51.86
42411;BME280;28056;51.112;0.984;2023-05-19T04:30:22;101771.69;;;10.46;52.10
42411;BME280;28056;51.112;0.984;2023-05-19T04:32:50;101773.78;;;10.08;51.79
42411;BME280;28056;51.112;0.984;2023-05-19T04:35:17;101775.20;;;10.17;52.17
42411;BME280;28056;51.112;0.984;2023-05-19T04:37:44;101769.76;;;10.31;51.65
42411;BME280;28056;51.112;0.984;2023-05-19T04:40:12;101765.54;;;10.18;52.22
42411;BME280;28056;51.112;0.984;2023-05-19T04:42:40;101766.42;;;10.35;51.94
42411;BME280;28056;51.112;0.984;2023-05-19T04:45:08;101766.22;;;10.15;52.99
42411;BME280;28056;51.112;0.984;2023-05-19T04:47:36;101766.26;;;10.22;52.44
42411;BME280;28056;51.112;0.984;2023-05-19T04:50:04;101771.11;;;9.70;52.18
42411;BME280;28056;51.112;0.984;2023-05-19T04:52:32;101770.83;;;9.73;52.53
42411;BME280;28056;51.112;0.984;2023-05-19T04:54:59;101770.10;;;10.07;51.89
42411;BME280;28056;51.112;0.984;2023-05-19T04:57:26;101770.03;;;10.04;51.80
42411;BME280;28056;51.112;0.984;2023-05-19T04:59:54;101766.63;;;9.92;53.38
42411;BME280;28056;51.112;0.984;2023-05-19T05:02:22;101766.60;;;9.79;54.63
42411;BME280;28056;51.112;0.984;2023-05-19T05:04:49;101763.86;;;10.09;53.63
42411;BME280;28056;51.112;0.984;2023-05-19T05:07:16;101768.92;;;10.10;54.74
42411;BME280;28056;51.112;0.984;2023-05-19T05:09:43;101768.07;;;10.08;55.78
42411;BME280;28056;51.112;0.984;2023-05-19T05:12:12;101768.83;;;9.88;56.43
42411;BME280;28056;51.112;0.984;2023-05-19T05:14:41;101771.00;;;10.30;56.02
42411;BME280;28056;51.112;0.984;2023-05-19T05:17:10;101771.21;;;9.80;57.89
42411;BME280;28056;51.112;0.984;2023-05-19T05:19:38;101774.25;;;10.35;56.90
42411;BME280;28056;51.112;0.984;2023-05-19T05:22:06;101774.18;;;10.36;57.22
42411;BME280;28056;51.112;0.984;2023-05-19T05:24:34;101774.59;;;9.94;60.41
42411;BME280;28056;51.112;0.984;2023-05-19T05:27:01;101775.15;;;10.52;58.83
42411;BME280;28056;51.112;0.984;2023-05-19T05:29:30;101773.76;;;10.17;61.01
42411;BME280;28056;51.112;0.984;2023-05-19T05:31:57;101773.88;;;10.87;59.12
42411;BME280;28056;51.112;0.984;2023-05-19T05:34:25;101778.58;;;10.84;58.78
42411;BME280;28056;51.112;0.984;2023-05-19T05:36:53;101781.98;;;10.86;59.76
42411;BME280;28056;51.112;0.984;2023-05-19T05:39:21;101782.68;;;10.85;60.91
42411;BME280;28056;51.112;0.984;2023-05-19T05:41:48;101781.61;;;11.26;60.04
42411;BME280;28056;51.112;0.984;2023-05-19T05:44:15;101775.62;;;11.45;59.04
42411;BME280;28056;51.112;0.984;2023-05-19T05:46:43;101769.49;;;11.35;58.69
42411;BME280;28056;51.112;0.984;2023-05-19T05:49:11;101758.98;;;11.73;58.45
42411;BME280;28056;51.112;0.984;2023-05-19T05:51:39;101749.16;;;11.99;59.00
42411;BME280;28056;51.112;0.984;2023-05-19T05:54:07;101747.42;;;11.92;59.34
42411;BME280;28056;51.112;0.984;2023-05-19T05:56:37;101743.76;;;12.23;59.04
42411;BME280;28056;51.112;0.984;2023-05-19T05:59:05;101747.14;;;12.00;60.21
42411;BME280;28056;51.112;0.984;2023-05-19T06:01:33;101749.28;;;11.73;61.89
42411;BME280;28056;51.112;0.984;2023-05-19T06:04:01;101750.02;;;11.62;62.55
42411;BME280;28056;51.112;0.984;2023-05-19T06:06:28;101744.72;;;11.30;64.28
42411;BME280;28056;51.112;0.984;2023-05-19T06:08:56;101747.13;;;11.87;63.28
42411;BME280;28056;51.112;0.984;2023-05-19T06:11:23;101750.92;;;10.89;66.14
42411;BME280;28056;51.112;0.984;2023-05-19T06:13:51;101752.52;;;11.16;65.86
42411;BME280;28056;51.112;0.984;2023-05-19T06:16:18;101756.46;;;11.59;67.07
42411;BME280;28056;51.112;0.984;2023-05-19T06:18:45;101754.07;;;11.31;66.29
42411;BME280;28056;51.112;0.984;2023-05-19T06:21:13;101761.52;;;11.67;64.96
42411;BME280;28056;51.112;0.984;2023-05-19T06:23:41;101766.02;;;11.25;67.72
42411;BME280;28056;51.112;0.984;2023-05-19T06:26:08;101768.19;;;12.01;65.30
42411;BME280;28056;51.112;0.984;2023-05-19T06:28:35;101770.10;;;12.58;63.21
42411;BME280;28056;51.112;0.984;2023-05-19T06:31:02;101774.22;;;12.11;64.53
42411;BME280;28056;51.112;0.984;2023-05-19T06:33:29;101774.10;;;11.57;65.91
42411;BME280;28056;51.112;0.984;2023-05-19T06:35:56;101776.84;;;12.84;63.03
42411;BME280;28056;51.112;0.984;2023-05-19T06:38:23;101777.18;;;13.32;61.34
42411;BME280;28056;51.112;0.984;2023-05-19T06:40:51;101775.31;;;13.10;61.63
42411;BME280;28056;51.112;0.984;2023-05-19T06:43:18;101774.49;;;13.30;60.35
42411;BME280;28056;51.112;0.984;2023-05-19T06:45:45;101773.30;;;13.21;59.93
42411;BME280;28056;51.112;0.984;2023-05-19T06:48:13;101777.46;;;13.09;61.81
42411;BME280;28056;51.112;0.984;2023-05-19T06:50:40;101777.97;;;13.47;60.06
42411;BME280;28056;51.112;0.984;2023-05-19T06:53:08;101779.62;;;13.69;58.56
42411;BME280;28056;51.112;0.984;2023-05-19T06:55:35;101777.05;;;14.20;58.77
42411;BME280;28056;51.112;0.984;2023-05-19T06:58:02;101781.01;;;13.07;61.56
42411;BME280;28056;51.112;0.984;2023-05-19T07:00:29;101779.63;;;13.20;61.30
42411;BME280;28056;51.112;0.984;2023-05-19T07:02:56;101771.35;;;14.29;59.68
42411;BME280;28056;51.112;0.984;2023-05-19T07:05:23;101780.91;;;13.75;60.58
42411;BME280;28056;51.112;0.984;2023-05-19T07:07:50;101774.77;;;14.04;59.39
42411;BME280;28056;51.112;0.984;2023-05-19T07:10:17;101773.79;;;13.86;59.29
42411;BME280;28056;51.112;0.984;2023-05-19T07:12:45;101773.86;;;13.58;58.81
42411;BME280;28056;51.112;0.984;2023-05-19T07:15:12;101768.50;;;14.33;57.35
42411;BME280;28056;51.112;0.984;2023-05-19T07:17:40;101771.09;;;13.26;59.98
42411;BME280;28056;51.112;0.984;2023-05-19T07:20:08;101760.80;;;14.17;59.38
42411;BME280;28056;51.112;0.984;2023-05-19T07:22:36;101760.29;;;14.03;57.75
42411;BME280;28056;51.112;0.984;2023-05-19T07:25:05;101762.83;;;14.17;59.29
42411;BME280;28056;51.112;0.984;2023-05-19T07:27:32;101765.35;;;13.57;60.11
42411;BME280;28056;51.112;0.984;2023-05-19T07:30:00;101765.36;;;14.81;59.90
42411;BME280;28056;51.112;0.984;2023-05-19T07:32:28;101769.98;;;14.52;57.90
42411;BME280;28056;51.112;0.984;2023-05-19T07:34:55;101774.82;;;14.87;58.65
42411;BME280;28056;51.112;0.984;2023-05-19T07:37:24;101778.71;;;15.77;56.70
42411;BME280;28056;51.112;0.984;2023-05-19T07:39:51;101776.55;;;15.28;55.31
42411;BME280;28056;51.112;0.984;2023-05-19T07:42:18;101778.33;;;14.77;55.57
42411;BME280;28056;51.112;0.984;2023-05-19T07:44:46;101778.84;;;15.83;54.93
42411;BME280;28056;51.112;0.984;2023-05-19T07:47:14;101776.36;;;15.91;54.05
42411;BME280;28056;51.112;0.984;2023-05-19T07:49:41;101774.54;;;15.56;53.59
42411;BME280;28056;51.112;0.984;2023-05-19T07:52:08;101772.44;;;16.03;52.82
42411;BME280;28056;51.112;0.984;2023-05-19T07:54:35;101769.42;;;16.31;52.39
42411;BME280;28056;51.112;0.984;2023-05-19T07:57:03;101766.56;;;16.04;49.38
42411;BME280;28056;51.112;0.984;2023-05-19T07:59:31;101770.00;;;15.85;51.84
42411;BME280;28056;51.112;0.984;2023-05-19T08:01:58;101771.74;;;15.70;51.93
42411;BME280;28056;51.112;0.984;2023-05-19T08:04:26;101773.61;;;16.16;53.16
42411;BME280;28056;51.112;0.984;2023-05-19T08:06:54;101775.99;;;15.40;53.26
42411;BME280;28056;51.112;0.984;2023-05-19T08:09:21;101771.45;;;15.10;50.06
42411;BME280;28056;51.112;0.984;2023-05-19T08:11:49;101767.93;;;16.33;52.42
42411;BME280;28056;51.112;0.984;2023-05-19T08:14:17;101763.66;;;16.29;53.03
42411;BME280;28056;51.112;0.984;2023-05-19T08:16:44;101767.00;;;17.40;51.06
42411;BME280;28056;51.112;0.984;2023-05-19T08:19:11;101762.30;;;17.16;48.50
42411;BME280;28056;51.112;0.984;2023-05-19T08:21:39;101754.31;;;16.72;47.57
42411;BME280;28056;51.112;0.984;2023-05-19T08:24:07;101757.59;;;17.55;45.28
42411;BME280;28056;51.112;0.984;2023-05-19T08:26:34;101760.19;;;17.23;45.23
42411;BME280;28056;51.112;0.984;2023-05-19T08:29:02;101758.28;;;16.36;48.43
42411;BME280;28056;51.112;0.984;2023-05-19T08:31:30;101758.60;;;16.54;46.90
42411;BME280;28056;51.112;0.984;2023-05-19T08:33:57;101757.09;;;17.21;46.59
42411;BME280;28056;51.112;0.984;2023-05-19T08:36:25;101760.65;;;17.95;45.19
42411;BME280;28056;51.112;0.984;2023-05-19T08:38:52;101763.61;;;17.16;46.70
42411;BME280;28056;51.112;0.984;2023-05-19T08:41:19;101763.82;;;16.94;48.80
42411;BME280;28056;51.112;0.984;2023-05-19T08:43:46;101767.58;;;16.86;46.96
42411;BME280;28056;51.112;0.984;2023-05-19T08:46:15;101765.23;;;16.95;46.18
42411;BME280;28056;51.112;0.984;2023-05-19T08:48:44;101768.23;;;16.82;47.48
42411;BME280;28056;51.112;0.984;2023-05-19T08:51:24;101767.37;;;17.69;45.70
42411;BME280;28056;51.112;0.984;2023-05-19T08:53:59;101767.84;;;16.62;47.24
42411;BME280;28056;51.112;0.984;2023-05-19T08:56:30;101767.71;;;16.89;44.66
42411;BME280;28056;51.112;0.984;2023-05-19T08:58:58;101764.61;;;16.13;45.46
42411;BME280;28056;51.112;0.984;2023-05-19T09:01:28;101767.69;;;16.97;44.76
42411;BME280;28056;51.112;0.984;2023-05-19T09:03:56;101767.08;;;17.79;46.66
42411;BME280;28056;51.112;0.984;2023-05-19T09:06:24;101764.90;;;16.33;47.91
42411;BME280;28056;51.112;0.984;2023-05-19T09:08:52;101763.31;;;16.69;45.49
42411;BME280;28056;51.112;0.984;2023-05-19T09:11:25;101767.69;;;17.56;45.21
42411;BME280;28056;51.112;0.984;2023-05-19T09:13:52;101767.92;;;18.44;45.24
42411;BME280;28056;51.112;0.984;2023-05-19T09:16:20;101769.30;;;17.78;45.35
42411;BME280;28056;51.112;0.984;2023-05-19T09:18:55;101766.32;;;18.22;46.44
42411;BME280;28056;51.112;0.984;2023-05-19T09:21:28;101761.72;;;18.70;44.23
42411;BME280;28056;51.112;0.984;2023-05-19T09:23:55;101760.85;;;18.54;42.16
42411;BME280;28056;51.112;0.984;2023-05-19T09:26:22;101758.70;;;19.10;46.46
42411;BME280;28056;51.112;0.984;2023-05-19T09:28:50;101758.48;;;16.92;41.70
42411;BME280;28056;51.112;0.984;2023-05-19T09:31:17;101756.50;;;17.87;44.60
42411;BME280;28056;51.112;0.984;2023-05-19T09:33:45;101758.44;;;19.11;43.54
42411;BME280;28056;51.112;0.984;2023-05-19T09:36:13;101757.35;;;18.49;42.18
42411;BME280;28056;51.112;0.984;2023-05-19T09:38:40;101764.62;;;18.30;41.84
42411;BME280;28056;51.112;0.984;2023-05-19T09:41:08;101765.71;;;19.12;40.94
42411;BME280;28056;51.112;0.984;2023-05-19T09:43:35;101764.79;;;18.89;38.99
42411;BME280;28056;51.112;0.984;2023-05-19T09:46:04;101764.64;;;19.06;44.30
42411;BME280;28056;51.112;0.984;2023-05-19T09:48:31;101766.35;;;19.80;42.01
42411;BME280;28056;51.112;0.984;2023-05-19T09:51:00;101761.94;;;19.01;39.39
42411;BME280;28056;51.112;0.984;2023-05-19T09:53:29;101766.66;;;18.40;38.53
42411;BME280;28056;51.112;0.984;2023-05-19T09:55:57;101766.91;;;19.52;41.07
42411;BME280;28056;51.112;0.984;2023-05-19T09:58:24;101761.92;;;19.26;41.15
42411;BME280;28056;51.112;0.984;2023-05-19T10:00:52;101761.38;;;19.46;40.55
42411;BME280;28056;51.112;0.984;2023-05-19T10:03:21;101763.29;;;20.20;38.89
42411;BME280;28056;51.112;0.984;2023-05-19T10:05:49;101763.64;;;19.45;38.69
42411;BME280;28056;51.112;0.984;2023-05-19T10:08:17;101760.25;;;20.11;39.36
42411;BME280;28056;51.112;0.984;2023-05-19T10:10:45;101766.13;;;17.84;40.42
42411;BME280;28056;51.112;0.984;2023-05-19T10:13:13;101761.30;;;19.40;37.70
42411;BME280;28056;51.112;0.984;2023-05-19T10:15:41;101760.85;;;19.00;38.24
42411;BME280;28056;51.112;0.984;2023-05-19T10:18:09;101762.90;;;19.45;36.40
42411;BME280;28056;51.112;0.984;2023-05-19T10:20:37;101761.34;;;19.46;39.88
42411;BME280;28056;51.112;0.984;2023-05-19T10:23:05;101761.74;;;19.26;38.25
42411;BME280;28056;51.112;0.984;2023-05-19T10:25:33;101762.24;;;18.68;39.13
42411;BME280;28056;51.112;0.984;2023-05-19T10:28:04;101760.29;;;19.02;37.30
42411;BME280;28056;51.112;0.984;2023-05-19T10:30:35;101756.36;;;19.21;38.40
42411;BME280;28056;51.112;0.984;2023-05-19T10:33:06;101757.04;;;19.91;39.39
42411;BME280;28056;51.112;0.984;2023-05-19T10:35:52;101755.61;;;20.03;40.41
42411;BME280;28056;51.112;0.984;2023-05-19T10:38:32;101754.69;;;20.22;40.17
42411;BME280;28056;51.112;0.984;2023-05-19T10:41:06;101751.02;;;20.56;38.93
42411;BME280;28056;51.112;0.984;2023-05-19T10:43:45;101750.83;;;19.78;37.61
42411;BME280;28056;51.112;0.984;2023-05-19T10:46:15;101746.08;;;19.98;37.84
42411;BME280;28056;51.112;0.984;2023-05-19T10:48:44;101746.65;;;20.33;36.87
42411;BME280;28056;51.112;0.984;2023-05-19T10:51:13;101742.94;;;19.93;39.50
42411;BME280;28056;51.112;0.984;2023-05-19T10:53:42;101744.00;;;20.01;38.06
42411;BME280;28056;51.112;0.984;2023-05-19T10:56:09;101740.27;;;19.92;40.59
42411;BME280;28056;51.112;0.984;2023-05-19T10:58:38;101741.83;;;20.77;39.67
42411;BME280;28056;51.112;0.984;2023-05-19T11:01:07;101746.27;;;19.81;37.43
42411;BME280;28056;51.112;0.984;2023-05-19T11:03:43;101743.23;;;20.03;36.82
42411;BME280;28056;51.112;0.984;2023-05-19T11:06:20;101743.81;;;19.82;40.12
42411;BME280;28056;51.112;0.984;2023-05-19T11:08:52;101739.44;;;20.44;35.20
42411;BME280;28056;51.112;0.984;2023-05-19T11:11:19;101741.73;;;19.88;36.57
42411;BME280;28056;51.112;0.984;2023-05-19T11:13:49;101743.44;;;19.66;39.77
42411;BME280;28056;51.112;0.984;2023-05-19T11:16:18;101741.39;;;19.26;40.15
42411;BME280;28056;51.112;0.984;2023-05-19T11:18:48;101737.21;;;19.48;36.72
42411;BME280;28056;51.112;0.984;2023-05-19T11:21:15;101739.33;;;20.11;37.89
42411;BME280;28056;51.112;0.984;2023-05-19T11:23:42;101742.32;;;19.57;39.79
42411;BME280;28056;51.112;0.984;2023-05-19T11:26:12;101738.10;;;19.41;39.08
42411;BME280;28056;51.112;0.984;2023-05-19T11:28:40;101735.72;;;20.39;40.60
42411;BME280;28056;51.112;0.984;2023-05-19T11:31:08;101731.59;;;20.45;38.29
42411;BME280;28056;51.112;0.984;2023-05-19T11:33:37;101735.25;;;19.63;41.11
42411;BME280;28056;51.112;0.984;2023-05-19T11:36:05;101730.67;;;20.59;36.05
42411;BME280;28056;51.112;0.984;2023-05-19T11:38:34;101734.24;;;18.92;37.22
42411;BME280;28056;51.112;0.984;2023-05-19T11:41:02;101728.85;;;20.35;37.08
42411;BME280;28056;51.112;0.984;2023-05-19T11:43:41;101731.11;;;20.32;37.62
42411;BME280;28056;51.112;0.984;2023-05-19T11:46:09;101727.41;;;18.80;36.77
42411;BME280;28056;51.112;0.984;2023-05-19T11:48:36;101720.94;;;19.97;37.79
42411;BME280;28056;51.112;0.984;2023-05-19T11:51:05;101718.27;;;20.60;37.95
42411;BME280;28056;51.112;0.984;2023-05-19T11:53:33;101716.89;;;20.37;38.08
42411;BME280;28056;51.112;0.984;2023-05-19T11:56:02;101712.66;;;20.77;37.15
42411;BME280;28056;51.112;0.984;2023-05-19T11:58:30;101711.91;;;20.07;36.66
42411;BME280;28056;51.112;0.984;2023-05-19T12:01:01;101712.28;;;20.35;37.65
42411;BME280;28056;51.112;0.984;2023-05-19T12:03:29;101708.07;;;19.83;38.93
42411;BME280;28056;51.112;0.984;2023-05-19T12:05:57;101707.88;;;19.43;39.70
42411;BME280;28056;51.112;0.984;2023-05-19T12:08:24;101705.78;;;19.31;37.95
42411;BME280;28056;51.112;0.984;2023-05-19T12:10:53;101706.86;;;19.47;40.65
42411;BME280;28056;51.112;0.984;2023-05-19T12:13:21;101708.52;;;19.46;36.04
42411;BME280;28056;51.112;0.984;2023-05-19T12:15:50;101707.03;;;17.99;39.02
42411;BME280;28056;51.112;0.984;2023-05-19T12:18:18;101708.85;;;18.56;40.68
42411;BME280;28056;51.112;0.984;2023-05-19T12:20:46;101707.81;;;19.73;39.34
42411;BME280;28056;51.112;0.984;2023-05-19T12:23:14;101711.46;;;19.46;39.36
42411;BME280;28056;51.112;0.984;2023-05-19T12:25:41;101710.49;;;19.94;40.30
42411;BME280;28056;51.112;0.984;2023-05-19T12:28:08;101708.25;;;20.41;41.58
42411;BME280;28056;51.112;0.984;2023-05-19T12:30:36;101705.64;;;20.52;41.27
42411;BME280;28056;51.112;0.984;2023-05-19T12:33:03;101705.03;;;20.53;36.53
42411;BME280;28056;51.112;0.984;2023-05-19T12:35:31;101703.98;;;20.01;36.24
42411;BME280;28056;51.112;0.984;2023-05-19T12:38:02;101708.63;;;19.84;34.77
42411;BME280;28056;51.112;0.984;2023-05-19T12:40:30;101705.86;;;20.12;34.86
42411;BME280;28056;51.112;0.984;2023-05-19T12:42:57;101708.13;;;20.32;37.83
42411;BME280;28056;51.112;0.984;2023-05-19T12:45:24;101706.37;;;20.09;35.84
42411;BME280;28056;51.112;0.984;2023-05-19T12:47:52;101702.10;;;18.69;36.76
42411;BME280;28056;51.112;0.984;2023-05-19T12:50:20;101703.07;;;19.27;42.47
42411;BME280;28056;51.112;0.984;2023-05-19T12:52:48;101708.27;;;20.49;39.97
42411;BME280;28056;51.112;0.984;2023-05-19T12:55:16;101709.97;;;20.70;42.01
42411;BME280;28056;51.112;0.984;2023-05-19T12:57:43;101705.84;;;21.06;37.09
42411;BME280;28056;51.112;0.984;2023-05-19T13:00:14;101698.65;;;21.15;38.03